Airport View

Enter AWOS ICAO identifier for current METAR.

ex. KFNL

KCEZ 112153Z AUTO 11003KT 10SM CLR 06/M03 A3019 RMK AO2 SLP230 T00561033

11 Dec 2019 22:32

Frequency: 135.625

Phone: 970-564-0193

Other Area AWOS: KFMN - KDRO - KBDG - KTEX

TAF KFMN 111739Z 1118/1218 11007KT P6SM BKN250 FM120000 VRB06KT P6SM SCT150 FM120100 VRB05KT P6SM SCT250